Flight Briefing for CPX406

Departure Arrival
Nashville International Airport (KBNA)
Click to view FAA NOTAMS
Chicago/Rockford International Airport (KRFD)
Click to view FAA NOTAMS
Departure Time Arrival Time
N/A N/A
Aircraft Distance
B757-200SF 381nm
Departure METAR Arrival METAR
KBNA 152053Z 01008KT 7SM -RA OVC022 07/02 A2989 RMK AO2 SLP122 P0001 60001 T00670017 55005 KRFD 152054Z 32015KT 10SM BKN250 M09/M14 A2999 RMK AO2 SLP171 T10891144 58005
Suggested Route
HGGRD PXV J73 GUIDO JOT


View recent IFR Routes data
Notes



Charts and Procedures

Charts for KBNA
No chart available
Charts for KRFD
No chart available

Ventusky Weather